sensor_id;sensor_type;location;lat;lon;timestamp;pressure;altitude;pressure_sealevel;temperature;humidity
83563;BME280;73535;52.500;13.482;2024-03-29T00:00:25;99430.81;;;9.79;63.45
83563;BME280;73535;52.500;13.482;2024-03-29T00:02:50;99434.38;;;9.78;63.12
83563;BME280;73535;52.500;13.482;2024-03-29T00:05:16;99439.78;;;9.77;63.51
83563;BME280;73535;52.500;13.482;2024-03-29T00:07:41;99441.56;;;9.76;63.70
83563;BME280;73535;52.500;13.482;2024-03-29T00:10:06;99438.25;;;9.74;63.50
83563;BME280;73535;52.500;13.482;2024-03-29T00:12:31;99438.34;;;9.73;63.87
83563;BME280;73535;52.500;13.482;2024-03-29T00:14:56;99443.34;;;9.76;63.96
83563;BME280;73535;52.500;13.482;2024-03-29T00:17:22;99446.94;;;9.75;64.02
83563;BME280;73535;52.500;13.482;2024-03-29T00:19:47;99445.97;;;9.76;63.83
83563;BME280;73535;52.500;13.482;2024-03-29T00:22:13;99458.81;;;9.79;63.94
83563;BME280;73535;52.500;13.482;2024-03-29T00:24:38;99456.09;;;9.80;63.49
83563;BME280;73535;52.500;13.482;2024-03-29T00:27:03;99465.34;;;9.84;63.21
83563;BME280;73535;52.500;13.482;2024-03-29T00:29:29;99455.16;;;9.91;62.60
83563;BME280;73535;52.500;13.482;2024-03-29T00:31:54;99458.34;;;9.94;62.45
83563;BME280;73535;52.500;13.482;2024-03-29T00:34:20;99467.75;;;9.97;62.54
83563;BME280;73535;52.500;13.482;2024-03-29T00:36:45;99470.13;;;10.00;61.97
83563;BME280;73535;52.500;13.482;2024-03-29T00:39:10;99474.16;;;10.04;61.54
83563;BME280;73535;52.500;13.482;2024-03-29T00:41:36;99471.94;;;10.09;62.08
83563;BME280;73535;52.500;13.482;2024-03-29T00:44:01;99482.03;;;10.04;62.65
83563;BME280;73535;52.500;13.482;2024-03-29T00:46:28;99494.44;;;10.02;62.99
83563;BME280;73535;52.500;13.482;2024-03-29T00:48:53;99495.94;;;9.95;64.21
83563;BME280;73535;52.500;13.482;2024-03-29T00:51:18;99498.34;;;9.87;65.15
83563;BME280;73535;52.500;13.482;2024-03-29T00:53:43;99498.44;;;9.76;66.07
83563;BME280;73535;52.500;13.482;2024-03-29T00:56:08;99495.63;;;9.68;66.79
83563;BME280;73535;52.500;13.482;2024-03-29T00:58:34;99492.00;;;9.59;67.22
83563;BME280;73535;52.500;13.482;2024-03-29T01:00:59;99502.56;;;9.48;68.03
83563;BME280;73535;52.500;13.482;2024-03-29T01:03:24;99496.41;;;9.38;68.44
83563;BME280;73535;52.500;13.482;2024-03-29T01:05:52;99499.53;;;9.32;68.97
83563;BME280;73535;52.500;13.482;2024-03-29T01:08:18;99489.69;;;9.24;69.36
83563;BME280;73535;52.500;13.482;2024-03-29T01:10:44;99493.06;;;9.15;69.81
83563;BME280;73535;52.500;13.482;2024-03-29T01:13:09;99492.88;;;9.07;70.28
83563;BME280;73535;52.500;13.482;2024-03-29T01:15:34;99483.84;;;9.00;71.01
83563;BME280;73535;52.500;13.482;2024-03-29T01:17:59;99480.06;;;8.93;71.37
83563;BME280;73535;52.500;13.482;2024-03-29T01:20:24;99492.13;;;8.84;71.72
83563;BME280;73535;52.500;13.482;2024-03-29T01:22:50;99489.88;;;8.80;72.06
83563;BME280;73535;52.500;13.482;2024-03-29T01:25:15;99490.59;;;8.71;72.49
83563;BME280;73535;52.500;13.482;2024-03-29T01:27:42;99498.25;;;8.63;72.81
83563;BME280;73535;52.500;13.482;2024-03-29T01:30:07;99492.56;;;8.58;73.19
83563;BME280;73535;52.500;13.482;2024-03-29T01:32:33;99487.94;;;8.50;73.63
83563;BME280;73535;52.500;13.482;2024-03-29T01:34:58;99496.28;;;8.44;73.98
83563;BME280;73535;52.500;13.482;2024-03-29T01:37:23;99501.84;;;8.39;74.12
83563;BME280;73535;52.500;13.482;2024-03-29T01:39:48;99501.53;;;8.33;74.34
83563;BME280;73535;52.500;13.482;2024-03-29T01:42:14;99502.91;;;8.26;74.63
83563;BME280;73535;52.500;13.482;2024-03-29T01:44:39;99503.28;;;8.21;74.79
83563;BME280;73535;52.500;13.482;2024-03-29T01:47:04;99500.31;;;8.15;74.93
83563;BME280;73535;52.500;13.482;2024-03-29T01:49:30;99503.03;;;8.13;75.13
83563;BME280;73535;52.500;13.482;2024-03-29T01:51:55;99502.69;;;8.07;75.36
83563;BME280;73535;52.500;13.482;2024-03-29T01:54:21;99501.38;;;8.01;75.52
83563;BME280;73535;52.500;13.482;2024-03-29T01:56:46;99496.13;;;8.01;75.16
83563;BME280;73535;52.500;13.482;2024-03-29T01:59:13;99498.28;;;7.96;75.60
83563;BME280;73535;52.500;13.482;2024-03-29T02:01:40;99501.97;;;7.93;75.56
83563;BME280;73535;52.500;13.482;2024-03-29T02:04:06;99503.75;;;7.93;75.54
83563;BME280;73535;52.500;13.482;2024-03-29T02:06:32;99505.88;;;7.88;75.77
83563;BME280;73535;52.500;13.482;2024-03-29T02:08:57;99504.44;;;7.84;75.68
83563;BME280;73535;52.500;13.482;2024-03-29T02:11:22;99506.50;;;7.80;75.99
83563;BME280;73535;52.500;13.482;2024-03-29T02:13:49;99500.66;;;7.77;76.03
83563;BME280;73535;52.500;13.482;2024-03-29T02:16:14;99511.94;;;7.77;75.94
83563;BME280;73535;52.500;13.482;2024-03-29T02:18:40;99517.28;;;7.76;75.50
83563;BME280;73535;52.500;13.482;2024-03-29T02:21:06;99512.19;;;7.74;75.60
83563;BME280;73535;52.500;13.482;2024-03-29T02:23:32;99508.97;;;7.71;75.37
83563;BME280;73535;52.500;13.482;2024-03-29T02:26:00;99520.59;;;7.67;75.06
83563;BME280;73535;52.500;13.482;2024-03-29T02:28:26;99510.25;;;7.65;75.23
83563;BME280;73535;52.500;13.482;2024-03-29T02:30:51;99516.44;;;7.64;74.92
83563;BME280;73535;52.500;13.482;2024-03-29T02:33:16;99527.03;;;7.63;75.07
83563;BME280;73535;52.500;13.482;2024-03-29T02:35:41;99523.56;;;7.62;75.09
83563;BME280;73535;52.500;13.482;2024-03-29T02:38:07;99530.72;;;7.60;75.14
83563;BME280;73535;52.500;13.482;2024-03-29T02:40:32;99527.34;;;7.58;74.80
83563;BME280;73535;52.500;13.482;2024-03-29T02:42:57;99540.56;;;7.57;74.88
83563;BME280;73535;52.500;13.482;2024-03-29T02:45:22;99536.25;;;7.56;74.70
83563;BME280;73535;52.500;13.482;2024-03-29T02:47:48;99542.44;;;7.55;74.85
83563;BME280;73535;52.500;13.482;2024-03-29T02:50:15;99537.56;;;7.50;74.65
83563;BME280;73535;52.500;13.482;2024-03-29T02:52:40;99541.25;;;7.48;74.49
83563;BME280;73535;52.500;13.482;2024-03-29T02:55:05;99543.00;;;7.47;74.46
83563;BME280;73535;52.500;13.482;2024-03-29T02:57:31;99540.53;;;7.46;74.33
83563;BME280;73535;52.500;13.482;2024-03-29T02:59:56;99537.06;;;7.45;74.21
83563;BME280;73535;52.500;13.482;2024-03-29T03:02:21;99532.06;;;7.42;74.11
83563;BME280;73535;52.500;13.482;2024-03-29T03:04:46;99535.75;;;7.39;74.28
83563;BME280;73535;52.500;13.482;2024-03-29T03:07:12;99542.03;;;7.37;74.23
83563;BME280;73535;52.500;13.482;2024-03-29T03:09:55;99549.16;;;7.35;74.03
83563;BME280;73535;52.500;13.482;2024-03-29T03:12:40;99556.06;;;7.36;74.19
83563;BME280;73535;52.500;13.482;2024-03-29T03:15:05;99559.81;;;7.32;74.09
83563;BME280;73535;52.500;13.482;2024-03-29T03:17:31;99563.50;;;7.29;74.26
83563;BME280;73535;52.500;13.482;2024-03-29T03:19:56;99560.88;;;7.29;74.26
83563;BME280;73535;52.500;13.482;2024-03-29T03:22:22;99558.50;;;7.26;74.13
83563;BME280;73535;52.500;13.482;2024-03-29T03:24:47;99561.25;;;7.25;74.17
83563;BME280;73535;52.500;13.482;2024-03-29T03:27:12;99558.84;;;7.22;74.15
83563;BME280;73535;52.500;13.482;2024-03-29T03:29:37;99565.00;;;7.21;74.35
83563;BME280;73535;52.500;13.482;2024-03-29T03:32:03;99568.91;;;7.15;74.34
83563;BME280;73535;52.500;13.482;2024-03-29T03:34:28;99574.13;;;7.15;74.13
83563;BME280;73535;52.500;13.482;2024-03-29T03:36:53;99577.91;;;7.11;74.16
83563;BME280;73535;52.500;13.482;2024-03-29T03:39:19;99583.03;;;7.13;74.08
83563;BME280;73535;52.500;13.482;2024-03-29T03:41:44;99583.34;;;7.08;74.26
83563;BME280;73535;52.500;13.482;2024-03-29T03:44:09;99588.56;;;7.08;73.57
83563;BME280;73535;52.500;13.482;2024-03-29T03:46:34;99589.41;;;7.09;73.87
83563;BME280;73535;52.500;13.482;2024-03-29T03:48:59;99585.25;;;7.06;73.59
83563;BME280;73535;52.500;13.482;2024-03-29T03:51:25;99580.25;;;7.03;73.51
83563;BME280;73535;52.500;13.482;2024-03-29T03:53:50;99582.22;;;7.00;73.55
83563;BME280;73535;52.500;13.482;2024-03-29T03:56:15;99585.81;;;6.99;73.51
83563;BME280;73535;52.500;13.482;2024-03-29T03:58:41;99565.84;;;6.98;73.46
83563;BME280;73535;52.500;13.482;2024-03-29T04:01:06;99562.53;;;6.96;73.38
83563;BME280;73535;52.500;13.482;2024-03-29T04:03:31;99554.78;;;6.94;73.41
83563;BME280;73535;52.500;13.482;2024-03-29T04:05:57;99565.44;;;6.91;73.37
83563;BME280;73535;52.500;13.482;2024-03-29T04:08:22;99557.63;;;6.91;73.32
83563;BME280;73535;52.500;13.482;2024-03-29T04:10:47;99551.91;;;6.86;73.47
83563;BME280;73535;52.500;13.482;2024-03-29T04:13:12;99548.78;;;6.81;73.72
83563;BME280;73535;52.500;13.482;2024-03-29T04:15:38;99556.13;;;6.76;73.89
83563;BME280;73535;52.500;13.482;2024-03-29T04:18:03;99564.88;;;6.75;74.44
83563;BME280;73535;52.500;13.482;2024-03-29T04:20:28;99559.88;;;6.72;74.32
83563;BME280;73535;52.500;13.482;2024-03-29T04:22:54;99555.09;;;6.66;74.49
83563;BME280;73535;52.500;13.482;2024-03-29T04:25:19;99568.38;;;6.63;74.72
83563;BME280;73535;52.500;13.482;2024-03-29T04:27:44;99568.69;;;6.58;74.82
83563;BME280;73535;52.500;13.482;2024-03-29T04:30:10;99568.06;;;6.55;75.40
83563;BME280;73535;52.500;13.482;2024-03-29T04:32:35;99569.97;;;6.53;74.94
83563;BME280;73535;52.500;13.482;2024-03-29T04:35:00;99569.44;;;6.48;75.21
83563;BME280;73535;52.500;13.482;2024-03-29T04:37:25;99566.09;;;6.46;75.18
83563;BME280;73535;52.500;13.482;2024-03-29T04:39:51;99561.59;;;6.48;75.60
83563;BME280;73535;52.500;13.482;2024-03-29T04:42:16;99548.91;;;6.43;75.56
83563;BME280;73535;52.500;13.482;2024-03-29T04:44:41;99563.94;;;6.40;75.56
83563;BME280;73535;52.500;13.482;2024-03-29T04:47:07;99572.69;;;6.39;75.57
83563;BME280;73535;52.500;13.482;2024-03-29T04:49:32;99565.41;;;6.31;75.75
83563;BME280;73535;52.500;13.482;2024-03-29T04:52:00;99562.47;;;6.36;75.24
83563;BME280;73535;52.500;13.482;2024-03-29T04:54:25;99561.66;;;6.35;75.43
83563;BME280;73535;52.500;13.482;2024-03-29T04:56:52;99556.75;;;6.31;75.86
83563;BME280;73535;52.500;13.482;2024-03-29T04:59:17;99565.19;;;6.34;75.39
83563;BME280;73535;52.500;13.482;2024-03-29T05:01:43;99564.34;;;6.34;75.28
83563;BME280;73535;52.500;13.482;2024-03-29T05:04:09;99565.06;;;6.36;74.96
83563;BME280;73535;52.500;13.482;2024-03-29T05:06:35;99557.88;;;6.39;75.23
83563;BME280;73535;52.500;13.482;2024-03-29T05:09:00;99562.03;;;6.42;74.98
83563;BME280;73535;52.500;13.482;2024-03-29T05:11:25;99574.38;;;6.40;74.66
83563;BME280;73535;52.500;13.482;2024-03-29T05:13:51;99578.66;;;6.41;74.47
83563;BME280;73535;52.500;13.482;2024-03-29T05:16:16;99585.09;;;6.48;74.44
83563;BME280;73535;52.500;13.482;2024-03-29T05:18:41;99574.66;;;6.48;74.42
83563;BME280;73535;52.500;13.482;2024-03-29T05:21:06;99578.09;;;6.48;74.47
83563;BME280;73535;52.500;13.482;2024-03-29T05:23:32;99566.53;;;6.52;73.92
83563;BME280;73535;52.500;13.482;2024-03-29T05:25:57;99579.94;;;6.59;73.96
83563;BME280;73535;52.500;13.482;2024-03-29T05:28:22;99572.03;;;6.60;73.57
83563;BME280;73535;52.500;13.482;2024-03-29T05:30:47;99586.63;;;6.63;73.34
83563;BME280;73535;52.500;13.482;2024-03-29T05:33:13;99587.25;;;6.66;73.31
83563;BME280;73535;52.500;13.482;2024-03-29T05:35:38;99588.59;;;6.72;73.24
83563;BME280;73535;52.500;13.482;2024-03-29T05:38:03;99591.09;;;6.73;73.13
83563;BME280;73535;52.500;13.482;2024-03-29T05:40:29;99596.00;;;6.78;72.85
83563;BME280;73535;52.500;13.482;2024-03-29T05:42:54;99590.56;;;6.81;72.76
83563;BME280;73535;52.500;13.482;2024-03-29T05:45:28;99579.78;;;6.86;72.64
83563;BME280;73535;52.500;13.482;2024-03-29T05:47:54;99569.03;;;6.90;72.54
83563;BME280;73535;52.500;13.482;2024-03-29T05:50:20;99574.13;;;6.92;72.49
83563;BME280;73535;52.500;13.482;2024-03-29T05:52:45;99575.69;;;6.94;72.68
83563;BME280;73535;52.500;13.482;2024-03-29T05:55:11;99567.75;;;6.96;72.47
83563;BME280;73535;52.500;13.482;2024-03-29T05:57:36;99581.66;;;6.96;72.63
83563;BME280;73535;52.500;13.482;2024-03-29T06:00:07;99586.75;;;6.98;72.41
83563;BME280;73535;52.500;13.482;2024-03-29T06:02:33;99589.03;;;7.02;72.05
83563;BME280;73535;52.500;13.482;2024-03-29T06:04:58;99585.25;;;7.06;71.95
83563;BME280;73535;52.500;13.482;2024-03-29T06:07:23;99590.25;;;7.09;72.15
83563;BME280;73535;52.500;13.482;2024-03-29T06:09:48;99588.25;;;7.13;72.17
83563;BME280;73535;52.500;13.482;2024-03-29T06:12:14;99598.13;;;7.20;71.97
83563;BME280;73535;52.500;13.482;2024-03-29T06:14:39;99594.25;;;7.26;71.63
83563;BME280;73535;52.500;13.482;2024-03-29T06:17:23;99607.94;;;7.29;71.63
83563;BME280;73535;52.500;13.482;2024-03-29T06:19:51;99611.25;;;7.31;71.06
83563;BME280;73535;52.500;13.482;2024-03-29T06:22:20;99603.94;;;7.36;70.88
83563;BME280;73535;52.500;13.482;2024-03-29T06:24:45;99617.59;;;7.40;70.68
83563;BME280;73535;52.500;13.482;2024-03-29T06:27:11;99615.59;;;7.44;70.34
83563;BME280;73535;52.500;13.482;2024-03-29T06:29:37;99611.69;;;7.49;70.28
83563;BME280;73535;52.500;13.482;2024-03-29T06:32:02;99621.25;;;7.61;70.07
83563;BME280;73535;52.500;13.482;2024-03-29T06:34:30;99627.94;;;7.65;69.61
83563;BME280;73535;52.500;13.482;2024-03-29T06:36:56;99626.16;;;7.66;69.60
83563;BME280;73535;52.500;13.482;2024-03-29T06:39:21;99632.59;;;7.73;69.59
83563;BME280;73535;52.500;13.482;2024-03-29T06:41:46;99632.13;;;7.79;69.58
83563;BME280;73535;52.500;13.482;2024-03-29T06:44:11;99630.22;;;7.81;69.47
83563;BME280;73535;52.500;13.482;2024-03-29T06:46:37;99633.13;;;7.89;69.27
83563;BME280;73535;52.500;13.482;2024-03-29T06:49:02;99637.28;;;7.91;68.70
83563;BME280;73535;52.500;13.482;2024-03-29T06:51:28;99632.44;;;7.98;68.98
83563;BME280;73535;52.500;13.482;2024-03-29T06:53:53;99649.47;;;8.04;68.48
83563;BME280;73535;52.500;13.482;2024-03-29T06:56:18;99649.94;;;8.09;68.50
83563;BME280;73535;52.500;13.482;2024-03-29T06:58:43;99657.94;;;8.18;68.25
83563;BME280;73535;52.500;13.482;2024-03-29T07:01:09;99656.06;;;8.31;67.91
83563;BME280;73535;52.500;13.482;2024-03-29T07:03:34;99669.63;;;8.36;67.83
83563;BME280;73535;52.500;13.482;2024-03-29T07:05:59;99668.56;;;8.39;67.50
83563;BME280;73535;52.500;13.482;2024-03-29T07:08:24;99652.28;;;8.46;67.44
83563;BME280;73535;52.500;13.482;2024-03-29T07:10:58;99649.91;;;8.55;67.04
83563;BME280;73535;52.500;13.482;2024-03-29T07:13:24;99637.28;;;8.60;66.97
83563;BME280;73535;52.500;13.482;2024-03-29T07:15:52;99636.56;;;8.69;66.58
83563;BME280;73535;52.500;13.482;2024-03-29T07:18:17;99652.66;;;8.75;66.54
83563;BME280;73535;52.500;13.482;2024-03-29T07:20:43;99654.66;;;8.83;66.21
83563;BME280;73535;52.500;13.482;2024-03-29T07:23:08;99668.97;;;8.90;65.49
83563;BME280;73535;52.500;13.482;2024-03-29T07:25:33;99679.91;;;8.95;65.09
83563;BME280;73535;52.500;13.482;2024-03-29T07:27:58;99693.22;;;9.03;64.71
83563;BME280;73535;52.500;13.482;2024-03-29T07:30:24;99701.59;;;9.08;64.32
83563;BME280;73535;52.500;13.482;2024-03-29T07:32:49;99686.31;;;9.13;64.04
83563;BME280;73535;52.500;13.482;2024-03-29T07:35:14;99687.50;;;9.20;63.86
83563;BME280;73535;52.500;13.482;2024-03-29T07:37:40;99682.00;;;9.23;63.60
83563;BME280;73535;52.500;13.482;2024-03-29T07:40:08;99683.56;;;9.26;63.50
83563;BME280;73535;52.500;13.482;2024-03-29T07:42:33;99685.69;;;9.32;63.33
83563;BME280;73535;52.500;13.482;2024-03-29T07:44:58;99688.91;;;9.35;63.40
83563;BME280;73535;52.500;13.482;2024-03-29T07:47:23;99696.41;;;9.40;63.53
83563;BME280;73535;52.500;13.482;2024-03-29T07:49:50;99686.13;;;9.48;63.57
83563;BME280;73535;52.500;13.482;2024-03-29T07:52:16;99690.06;;;9.53;62.64
83563;BME280;73535;52.500;13.482;2024-03-29T07:54:41;99694.66;;;9.61;62.05
83563;BME280;73535;52.500;13.482;2024-03-29T07:57:07;99689.91;;;9.66;61.95
83563;BME280;73535;52.500;13.482;2024-03-29T07:59:33;99699.91;;;9.72;61.63
83563;BME280;73535;52.500;13.482;2024-03-29T08:01:59;99704.50;;;9.80;60.73
83563;BME280;73535;52.500;13.482;2024-03-29T08:04:24;99714.88;;;10.13;60.22
83563;BME280;73535;52.500;13.482;2024-03-29T08:06:51;99712.28;;;10.02;60.47
83563;BME280;73535;52.500;13.482;2024-03-29T08:09:17;99716.34;;;10.06;59.94
83563;BME280;73535;52.500;13.482;2024-03-29T08:11:42;99722.88;;;10.11;59.71
83563;BME280;73535;52.500;13.482;2024-03-29T08:14:07;99720.72;;;10.16;59.71
83563;BME280;73535;52.500;13.482;2024-03-29T08:16:33;99729.88;;;10.22;59.19
83563;BME280;73535;52.500;13.482;2024-03-29T08:18:59;99713.50;;;10.30;59.38
83563;BME280;73535;52.500;13.482;2024-03-29T08:21:24;99717.41;;;10.35;59.44
83563;BME280;73535;52.500;13.482;2024-03-29T08:23:52;99710.94;;;10.39;59.85
83563;BME280;73535;52.500;13.482;2024-03-29T08:26:19;99719.28;;;10.44;60.12
83563;BME280;73535;52.500;13.482;2024-03-29T08:28:45;99713.50;;;10.50;60.43
83563;BME280;73535;52.500;13.482;2024-03-29T08:31:11;99710.63;;;10.53;59.95
83563;BME280;73535;52.500;13.482;2024-03-29T08:33:37;99693.50;;;10.59;60.37
83563;BME280;73535;52.500;13.482;2024-03-29T08:36:06;99684.97;;;10.66;60.99
83563;BME280;73535;52.500;13.482;2024-03-29T08:38:33;99673.25;;;10.70;62.26
83563;BME280;73535;52.500;13.482;2024-03-29T08:40:59;99658.72;;;10.76;62.31
83563;BME280;73535;52.500;13.482;2024-03-29T08:43:24;99658.47;;;10.79;62.17
83563;BME280;73535;52.500;13.482;2024-03-29T08:45:49;99645.88;;;10.83;62.69
83563;BME280;73535;52.500;13.482;2024-03-29T08:48:15;99637.59;;;10.87;63.08
83563;BME280;73535;52.500;13.482;2024-03-29T08:50:40;99660.72;;;10.93;63.49
83563;BME280;73535;52.500;13.482;2024-03-29T08:53:06;99678.72;;;10.98;62.83
83563;BME280;73535;52.500;13.482;2024-03-29T08:55:32;99686.34;;;11.01;61.66
83563;BME280;73535;52.500;13.482;2024-03-29T08:57:59;99688.59;;;11.05;62.38
83563;BME280;73535;52.500;13.482;2024-03-29T09:00:28;99688.31;;;11.08;61.58
83563;BME280;73535;52.500;13.482;2024-03-29T09:02:54;99689.72;;;11.12;61.62
83563;BME280;73535;52.500;13.482;2024-03-29T09:05:21;99691.53;;;11.21;61.91
83563;BME280;73535;52.500;13.482;2024-03-29T09:07:47;99694.19;;;11.31;62.02
83563;BME280;73535;52.500;13.482;2024-03-29T09:10:13;99700.84;;;11.35;61.85
83563;BME280;73535;52.500;13.482;2024-03-29T09:12:38;99701.97;;;11.42;60.50
83563;BME280;73535;52.500;13.482;2024-03-29T09:15:04;99700.59;;;11.48;59.72
83563;BME280;73535;52.500;13.482;2024-03-29T09:17:33;99701.03;;;11.62;60.10
83563;BME280;73535;52.500;13.482;2024-03-29T09:19:58;99702.88;;;11.71;60.08
83563;BME280;73535;52.500;13.482;2024-03-29T09:22:24;99702.91;;;11.81;59.52
83563;BME280;73535;52.500;13.482;2024-03-29T09:24:49;99711.50;;;11.93;59.46
83563;BME280;73535;52.500;13.482;2024-03-29T09:27:14;99703.72;;;12.01;59.19
83563;BME280;73535;52.500;13.482;2024-03-29T09:29:40;99706.22;;;12.02;57.99
83563;BME280;73535;52.500;13.482;2024-03-29T09:32:06;99703.31;;;12.05;57.73
83563;BME280;73535;52.500;13.482;2024-03-29T09:34:31;99712.72;;;12.08;57.32
83563;BME280;73535;52.500;13.482;2024-03-29T09:36:56;99715.22;;;12.09;56.09
83563;BME280;73535;52.500;13.482;2024-03-29T09:39:22;99710.25;;;12.16;56.63
83563;BME280;73535;52.500;13.482;2024-03-29T09:41:48;99697.88;;;12.16;56.23
83563;BME280;73535;52.500;13.482;2024-03-29T09:44:14;99713.84;;;12.24;56.12
83563;BME280;73535;52.500;13.482;2024-03-29T09:46:41;99714.09;;;12.31;55.56
83563;BME280;73535;52.500;13.482;2024-03-29T09:49:08;99713.13;;;12.32;54.24
83563;BME280;73535;52.500;13.482;2024-03-29T09:51:34;99722.94;;;12.39;54.29
83563;BME280;73535;52.500;13.482;2024-03-29T09:53:59;99718.78;;;12.37;53.37
83563;BME280;73535;52.500;13.482;2024-03-29T09:56:26;99719.34;;;12.40;53.90
83563;BME280;73535;52.500;13.482;2024-03-29T09:58:52;99720.03;;;12.42;53.97
83563;BME280;73535;52.500;13.482;2024-03-29T10:01:18;99707.56;;;12.44;54.00
83563;BME280;73535;52.500;13.482;2024-03-29T10:03:48;99712.84;;;12.44;53.72
83563;BME280;73535;52.500;13.482;2024-03-29T10:06:15;99717.00;;;12.47;54.22
83563;BME280;73535;52.500;13.482;2024-03-29T10:08:40;99712.81;;;12.54;54.52
83563;BME280;73535;52.500;13.482;2024-03-29T10:11:06;99707.41;;;12.56;53.89
83563;BME280;73535;52.500;13.482;2024-03-29T10:13:31;99704.47;;;12.59;54.24
83563;BME280;73535;52.500;13.482;2024-03-29T10:15:57;99706.84;;;12.62;54.14
83563;BME280;73535;52.500;13.482;2024-03-29T10:18:23;99701.28;;;12.65;53.49
83563;BME280;73535;52.500;13.482;2024-03-29T10:21:05;99710.03;;;12.65;53.91
83563;BME280;73535;52.500;13.482;2024-03-29T10:23:32;99693.50;;;12.63;54.60
83563;BME280;73535;52.500;13.482;2024-03-29T10:25:58;99696.41;;;12.60;54.42
83563;BME280;73535;52.500;13.482;2024-03-29T10:28:30;99695.06;;;12.56;55.40
83563;BME280;73535;52.500;13.482;2024-03-29T10:30:56;99681.47;;;12.51;56.23
83563;BME280;73535;52.500;13.482;2024-03-29T10:33:21;99684.66;;;12.45;56.27
83563;BME280;73535;52.500;13.482;2024-03-29T10:35:47;99682.34;;;12.42;57.27
83563;BME280;73535;52.500;13.482;2024-03-29T10:38:12;99672.22;;;12.37;56.99
83563;BME280;73535;52.500;13.482;2024-03-29T10:40:41;99659.19;;;12.36;57.35
83563;BME280;73535;52.500;13.482;2024-03-29T10:43:09;99659.19;;;12.36;58.64
83563;BME280;73535;52.500;13.482;2024-03-29T10:45:37;99655.56;;;12.37;59.20
83563;BME280;73535;52.500;13.482;2024-03-29T10:48:03;99658.75;;;12.40;59.39
83563;BME280;73535;52.500;13.482;2024-03-29T10:50:35;99655.16;;;12.41;59.01
83563;BME280;73535;52.500;13.482;2024-03-29T10:53:00;99652.69;;;12.30;59.57
83563;BME280;73535;52.500;13.482;2024-03-29T10:55:29;99659.91;;;12.19;59.72
83563;BME280;73535;52.500;13.482;2024-03-29T10:57:56;99650.19;;;12.19;61.56
83563;BME280;73535;52.500;13.482;2024-03-29T11:00:23;99658.94;;;12.20;61.91
83563;BME280;73535;52.500;13.482;2024-03-29T11:02:57;99644.41;;;12.16;61.29
83563;BME280;73535;52.500;13.482;2024-03-29T11:05:29;99655.34;;;12.21;61.86
83563;BME280;73535;52.500;13.482;2024-03-29T11:07:56;99621.66;;;12.24;62.43
83563;BME280;73535;52.500;13.482;2024-03-29T11:10:40;99605.56;;;12.27;61.58
83563;BME280;73535;52.500;13.482;2024-03-29T11:13:12;99603.88;;;12.36;62.83
83563;BME280;73535;52.500;13.482;2024-03-29T11:15:41;99599.91;;;12.50;62.42
83563;BME280;73535;52.500;13.482;2024-03-29T11:18:09;99609.31;;;12.62;62.05
83563;BME280;73535;52.500;13.482;2024-03-29T11:20:35;99600.41;;;12.63;60.67
83563;BME280;73535;52.500;13.482;2024-03-29T11:23:12;99605.06;;;12.78;61.01
83563;BME280;73535;52.500;13.482;2024-03-29T11:25:40;99599.75;;;12.88;60.00
83563;BME280;73535;52.500;13.482;2024-03-29T11:28:06;99583.72;;;12.99;59.87
83563;BME280;73535;52.500;13.482;2024-03-29T11:30:42;99573.53;;;13.14;60.15
83563;BME280;73535;52.500;13.482;2024-03-29T11:33:07;99573.91;;;13.19;59.34
83563;BME280;73535;52.500;13.482;2024-03-29T11:35:39;99567.72;;;13.28;59.11
83563;BME280;73535;52.500;13.482;2024-03-29T11:38:04;99569.59;;;13.35;58.39
83563;BME280;73535;52.500;13.482;2024-03-29T11:40:30;99573.69;;;13.30;57.39
83563;BME280;73535;52.500;13.482;2024-03-29T11:42:55;99569.53;;;13.27;57.04
83563;BME280;73535;52.500;13.482;2024-03-29T11:45:24;99580.38;;;13.24;56.81
83563;BME280;73535;52.500;13.482;2024-03-29T11:47:54;99572.63;;;13.23;56.95
83563;BME280;73535;52.500;13.482;2024-03-29T11:50:20;99572.63;;;13.23;56.26
83563;BME280;73535;52.500;13.482;2024-03-29T11:52:45;99578.88;;;13.22;56.72
83563;BME280;73535;52.500;13.482;2024-03-29T11:55:11;99585.13;;;13.21;57.16
83563;BME280;73535;52.500;13.482;2024-03-29T11:57:36;99578.22;;;13.20;57.37
83563;BME280;73535;52.500;13.482;2024-03-29T12:00:06;99587.94;;;13.19;57.41
83563;BME280;73535;52.500;13.482;2024-03-29T12:02:31;99589.72;;;13.19;57.61
83563;BME280;73535;52.500;13.482;2024-03-29T12:04:57;99594.47;;;13.15;58.39
83563;BME280;73535;52.500;13.482;2024-03-29T12:07:22;99600.75;;;13.14;59.14
83563;BME280;73535;52.500;13.482;2024-03-29T12:09:47;99601.03;;;13.11;59.31
83563;BME280;73535;52.500;13.482;2024-03-29T12:12:13;99600.09;;;13.02;59.38
83563;BME280;73535;52.500;13.482;2024-03-29T12:14:42;99604.66;;;13.00;60.08
83563;BME280;73535;52.500;13.482;2024-03-29T12:17:10;99604.94;;;12.97;60.03
83563;BME280;73535;52.500;13.482;2024-03-29T12:19:37;99594.94;;;13.01;60.69
83563;BME280;73535;52.500;13.482;2024-03-29T12:22:04;99595.59;;;13.13;61.94
83563;BME280;73535;52.500;13.482;2024-03-29T12:24:29;99587.38;;;13.16;61.41
83563;BME280;73535;52.500;13.482;2024-03-29T12:26:55;99588.75;;;13.20;60.65
83563;BME280;73535;52.500;13.482;2024-03-29T12:29:20;99582.34;;;13.22;60.11
83563;BME280;73535;52.500;13.482;2024-03-29T12:31:56;99575.56;;;13.37;59.77
83563;BME280;73535;52.500;13.482;2024-03-29T12:34:21;99553.75;;;13.53;59.61
83563;BME280;73535;52.500;13.482;2024-03-29T12:36:47;99538.69;;;13.63;58.67
83563;BME280;73535;52.500;13.482;2024-03-29T12:39:12;99525.38;;;13.73;57.77
83563;BME280;73535;52.500;13.482;2024-03-29T12:41:38;99514.03;;;13.80;57.53
83563;BME280;73535;52.500;13.482;2024-03-29T12:44:03;99522.69;;;13.90;56.67
83563;BME280;73535;52.500;13.482;2024-03-29T12:46:28;99517.59;;;13.97;56.42
83563;BME280;73535;52.500;13.482;2024-03-29T12:48:58;99526.31;;;14.15;55.57